<?xml version="1.0" encoding="UTF-8" standalone="no" ?>
<gpx xmlns="http://www.topografix.com/GPX/1/1" xmlns:xsi="http://www.w3.org/2001/XMLSchema-instance" xsi:schemaLocation="http://www.topografix.com/GPX/1/1 http://www.topografix.com/GPX/1/1/gpx.xsd" version="1.1" creator="VisuGPX - https://www.visugpx.com">
  <metadata>
    <name>luberon, Saignon, Auribeau, Castellet</name>
    <desc><![CDATA[Randonnée côté nord du grand luberon]]></desc>
  </metadata>
  <trk>
    <name><![CDATA[Luberon Saignon Auribeau Castellet]]></name>
    <trkseg>
      <trkpt lat="43.86141" lon="5.43009">
        <ele>493</ele>
        <time>2016-04-16T16:56:51+02:00</time>
      </trkpt>
      <trkpt lat="43.86051" lon="5.43037">
        <ele>515</ele>
        <time>2016-04-16T16:56:56+02:00</time>
      </trkpt>
      <trkpt lat="43.86018" lon="5.43164">
        <ele>528</ele>
        <time>2016-04-16T16:57:01+02:00</time>
      </trkpt>
      <trkpt lat="43.85996" lon="5.43255">
        <ele>530</ele>
        <time>2016-04-16T16:57:06+02:00</time>
      </trkpt>
      <trkpt lat="43.8593" lon="5.43323">
        <ele>533</ele>
        <time>2016-04-16T16:57:11+02:00</time>
      </trkpt>
      <trkpt lat="43.85907" lon="5.43351">
        <ele>533</ele>
        <time>2016-04-16T16:57:16+02:00</time>
      </trkpt>
      <trkpt lat="43.85853" lon="5.43379">
        <ele>541</ele>
        <time>2016-04-16T16:57:21+02:00</time>
      </trkpt>
      <trkpt lat="43.85795" lon="5.43429">
        <ele>545</ele>
        <time>2016-04-16T16:57:26+02:00</time>
      </trkpt>
      <trkpt lat="43.85806" lon="5.43458">
        <ele>543</ele>
        <time>2016-04-16T16:57:31+02:00</time>
      </trkpt>
      <trkpt lat="43.85814" lon="5.43545">
        <ele>539</ele>
        <time>2016-04-16T16:57:36+02:00</time>
      </trkpt>
      <trkpt lat="43.85762" lon="5.43661">
        <ele>545</ele>
        <time>2016-04-16T16:57:41+02:00</time>
      </trkpt>
      <trkpt lat="43.85617" lon="5.43833">
        <ele>567</ele>
        <time>2016-04-16T16:57:46+02:00</time>
      </trkpt>
      <trkpt lat="43.85533" lon="5.43886">
        <ele>573</ele>
        <time>2016-04-16T16:57:51+02:00</time>
      </trkpt>
      <trkpt lat="43.85473" lon="5.44088">
        <ele>579</ele>
        <time>2016-04-16T16:57:56+02:00</time>
      </trkpt>
      <trkpt lat="43.85458" lon="5.44096">
        <ele>579</ele>
        <time>2016-04-16T16:58:01+02:00</time>
      </trkpt>
      <trkpt lat="43.85422" lon="5.4408">
        <ele>581</ele>
        <time>2016-04-16T16:58:06+02:00</time>
      </trkpt>
      <trkpt lat="43.85324" lon="5.44172">
        <ele>585</ele>
        <time>2016-04-16T16:58:11+02:00</time>
      </trkpt>
      <trkpt lat="43.85252" lon="5.44178">
        <ele>588</ele>
        <time>2016-04-16T16:58:16+02:00</time>
      </trkpt>
      <trkpt lat="43.85199" lon="5.44166">
        <ele>590</ele>
        <time>2016-04-16T16:58:21+02:00</time>
      </trkpt>
      <trkpt lat="43.85088" lon="5.44223">
        <ele>595</ele>
        <time>2016-04-16T16:58:26+02:00</time>
      </trkpt>
      <trkpt lat="43.85036" lon="5.44249">
        <ele>599</ele>
        <time>2016-04-16T16:58:31+02:00</time>
      </trkpt>
      <trkpt lat="43.85005" lon="5.4415">
        <ele>599</ele>
        <time>2016-04-16T16:58:36+02:00</time>
      </trkpt>
      <trkpt lat="43.84899" lon="5.44103">
        <ele>603</ele>
        <time>2016-04-16T16:58:41+02:00</time>
      </trkpt>
      <trkpt lat="43.84868" lon="5.44091">
        <ele>605</ele>
        <time>2016-04-16T16:58:46+02:00</time>
      </trkpt>
      <trkpt lat="43.84817" lon="5.43989">
        <ele>603</ele>
        <time>2016-04-16T16:58:51+02:00</time>
      </trkpt>
      <trkpt lat="43.84755" lon="5.43896">
        <ele>601</ele>
        <time>2016-04-16T16:58:56+02:00</time>
      </trkpt>
      <trkpt lat="43.84708" lon="5.43949">
        <ele>605</ele>
        <time>2016-04-16T16:59:01+02:00</time>
      </trkpt>
      <trkpt lat="43.84601" lon="5.43973">
        <ele>614</ele>
        <time>2016-04-16T16:59:06+02:00</time>
      </trkpt>
      <trkpt lat="43.84511" lon="5.4398">
        <ele>614</ele>
        <time>2016-04-16T16:59:11+02:00</time>
      </trkpt>
      <trkpt lat="43.84448" lon="5.44013">
        <ele>612</ele>
        <time>2016-04-16T16:59:16+02:00</time>
      </trkpt>
      <trkpt lat="43.84461" lon="5.43883">
        <ele>605</ele>
        <time>2016-04-16T16:59:21+02:00</time>
      </trkpt>
      <trkpt lat="43.84419" lon="5.43828">
        <ele>599</ele>
        <time>2016-04-16T16:59:26+02:00</time>
      </trkpt>
      <trkpt lat="43.84415" lon="5.43731">
        <ele>600</ele>
        <time>2016-04-16T16:59:31+02:00</time>
      </trkpt>
      <trkpt lat="43.84382" lon="5.4367">
        <ele>591</ele>
        <time>2016-04-16T16:59:36+02:00</time>
      </trkpt>
      <trkpt lat="43.84396" lon="5.43646">
        <ele>594</ele>
        <time>2016-04-16T16:59:41+02:00</time>
      </trkpt>
      <trkpt lat="43.84386" lon="5.43533">
        <ele>587</ele>
        <time>2016-04-16T16:59:46+02:00</time>
      </trkpt>
      <trkpt lat="43.84372" lon="5.43513">
        <ele>583</ele>
        <time>2016-04-16T16:59:51+02:00</time>
      </trkpt>
      <trkpt lat="43.84345" lon="5.4345">
        <ele>574</ele>
        <time>2016-04-16T16:59:56+02:00</time>
      </trkpt>
      <trkpt lat="43.84297" lon="5.43545">
        <ele>574</ele>
        <time>2016-04-16T17:00:01+02:00</time>
      </trkpt>
      <trkpt lat="43.84264" lon="5.43556">
        <ele>570</ele>
        <time>2016-04-16T17:00:06+02:00</time>
      </trkpt>
      <trkpt lat="43.84252" lon="5.4352">
        <ele>570</ele>
        <time>2016-04-16T17:00:11+02:00</time>
      </trkpt>
      <trkpt lat="43.84185" lon="5.43559">
        <ele>579</ele>
        <time>2016-04-16T17:00:16+02:00</time>
      </trkpt>
      <trkpt lat="43.8422" lon="5.43442">
        <ele>580</ele>
        <time>2016-04-16T17:00:21+02:00</time>
      </trkpt>
      <trkpt lat="43.84212" lon="5.43417">
        <ele>583</ele>
        <time>2016-04-16T17:00:26+02:00</time>
      </trkpt>
      <trkpt lat="43.84155" lon="5.43371">
        <ele>591</ele>
        <time>2016-04-16T17:00:31+02:00</time>
      </trkpt>
      <trkpt lat="43.83995" lon="5.4334">
        <ele>593</ele>
        <time>2016-04-16T17:00:36+02:00</time>
      </trkpt>
      <trkpt lat="43.83968" lon="5.43305">
        <ele>593</ele>
        <time>2016-04-16T17:00:41+02:00</time>
      </trkpt>
      <trkpt lat="43.83959" lon="5.43272">
        <ele>592</ele>
        <time>2016-04-16T17:00:46+02:00</time>
      </trkpt>
      <trkpt lat="43.83851" lon="5.43182">
        <ele>584</ele>
        <time>2016-04-16T17:00:51+02:00</time>
      </trkpt>
      <trkpt lat="43.8375" lon="5.43325">
        <ele>585</ele>
        <time>2016-04-16T17:00:56+02:00</time>
      </trkpt>
      <trkpt lat="43.8368" lon="5.4347">
        <ele>580</ele>
        <time>2016-04-16T17:01:01+02:00</time>
      </trkpt>
      <trkpt lat="43.83691" lon="5.43598">
        <ele>593</ele>
        <time>2016-04-16T17:01:06+02:00</time>
      </trkpt>
      <trkpt lat="43.83658" lon="5.43729">
        <ele>599</ele>
        <time>2016-04-16T17:01:11+02:00</time>
      </trkpt>
      <trkpt lat="43.8366" lon="5.43763">
        <ele>602</ele>
        <time>2016-04-16T17:01:16+02:00</time>
      </trkpt>
      <trkpt lat="43.83638" lon="5.43843">
        <ele>611</ele>
        <time>2016-04-16T17:01:21+02:00</time>
      </trkpt>
      <trkpt lat="43.83582" lon="5.43885">
        <ele>615</ele>
        <time>2016-04-16T17:01:26+02:00</time>
      </trkpt>
      <trkpt lat="43.83567" lon="5.43928">
        <ele>620</ele>
        <time>2016-04-16T17:01:31+02:00</time>
      </trkpt>
      <trkpt lat="43.83536" lon="5.43964">
        <ele>625</ele>
        <time>2016-04-16T17:01:36+02:00</time>
      </trkpt>
      <trkpt lat="43.83514" lon="5.44015">
        <ele>626</ele>
        <time>2016-04-16T17:01:41+02:00</time>
      </trkpt>
      <trkpt lat="43.83519" lon="5.44032">
        <ele>627</ele>
        <time>2016-04-16T17:01:46+02:00</time>
      </trkpt>
      <trkpt lat="43.83499" lon="5.44096">
        <ele>630</ele>
        <time>2016-04-16T17:01:51+02:00</time>
      </trkpt>
      <trkpt lat="43.83473" lon="5.44178">
        <ele>641</ele>
        <time>2016-04-16T17:01:56+02:00</time>
      </trkpt>
      <trkpt lat="43.8343" lon="5.44232">
        <ele>646</ele>
        <time>2016-04-16T17:02:01+02:00</time>
      </trkpt>
      <trkpt lat="43.83318" lon="5.4432">
        <ele>662</ele>
        <time>2016-04-16T17:02:06+02:00</time>
      </trkpt>
      <trkpt lat="43.83379" lon="5.44293">
        <ele>654</ele>
        <time>2016-04-16T17:02:11+02:00</time>
      </trkpt>
      <trkpt lat="43.83418" lon="5.44306">
        <ele>650</ele>
        <time>2016-04-16T17:02:16+02:00</time>
      </trkpt>
      <trkpt lat="43.83444" lon="5.44294">
        <ele>648</ele>
        <time>2016-04-16T17:02:21+02:00</time>
      </trkpt>
      <trkpt lat="43.83421" lon="5.44339">
        <ele>652</ele>
        <time>2016-04-16T17:02:26+02:00</time>
      </trkpt>
      <trkpt lat="43.83387" lon="5.44366">
        <ele>656</ele>
        <time>2016-04-16T17:02:31+02:00</time>
      </trkpt>
      <trkpt lat="43.83359" lon="5.44455">
        <ele>664</ele>
        <time>2016-04-16T17:02:36+02:00</time>
      </trkpt>
      <trkpt lat="43.83359" lon="5.44504">
        <ele>665</ele>
        <time>2016-04-16T17:02:41+02:00</time>
      </trkpt>
      <trkpt lat="43.83349" lon="5.44547">
        <ele>666</ele>
        <time>2016-04-16T17:02:46+02:00</time>
      </trkpt>
      <trkpt lat="43.8336" lon="5.4461">
        <ele>662</ele>
        <time>2016-04-16T17:02:51+02:00</time>
      </trkpt>
      <trkpt lat="43.83355" lon="5.44643">
        <ele>663</ele>
        <time>2016-04-16T17:02:56+02:00</time>
      </trkpt>
      <trkpt lat="43.83369" lon="5.44687">
        <ele>662</ele>
        <time>2016-04-16T17:03:01+02:00</time>
      </trkpt>
      <trkpt lat="43.83359" lon="5.44765">
        <ele>667</ele>
        <time>2016-04-16T17:03:06+02:00</time>
      </trkpt>
      <trkpt lat="43.83337" lon="5.44839">
        <ele>669</ele>
        <time>2016-04-16T17:03:11+02:00</time>
      </trkpt>
      <trkpt lat="43.83299" lon="5.44913">
        <ele>682</ele>
        <time>2016-04-16T17:03:16+02:00</time>
      </trkpt>
      <trkpt lat="43.83291" lon="5.44946">
        <ele>686</ele>
        <time>2016-04-16T17:03:21+02:00</time>
      </trkpt>
      <trkpt lat="43.83316" lon="5.4499">
        <ele>689</ele>
        <time>2016-04-16T17:03:26+02:00</time>
      </trkpt>
      <trkpt lat="43.83304" lon="5.45025">
        <ele>692</ele>
        <time>2016-04-16T17:03:31+02:00</time>
      </trkpt>
      <trkpt lat="43.83286" lon="5.45062">
        <ele>696</ele>
        <time>2016-04-16T17:03:36+02:00</time>
      </trkpt>
      <trkpt lat="43.83219" lon="5.45074">
        <ele>701</ele>
        <time>2016-04-16T17:03:41+02:00</time>
      </trkpt>
      <trkpt lat="43.83216" lon="5.4512">
        <ele>704</ele>
        <time>2016-04-16T17:03:46+02:00</time>
      </trkpt>
      <trkpt lat="43.83195" lon="5.45166">
        <ele>709</ele>
        <time>2016-04-16T17:03:51+02:00</time>
      </trkpt>
      <trkpt lat="43.83197" lon="5.45181">
        <ele>707</ele>
        <time>2016-04-16T17:03:56+02:00</time>
      </trkpt>
      <trkpt lat="43.8318" lon="5.45179">
        <ele>710</ele>
        <time>2016-04-16T17:04:01+02:00</time>
      </trkpt>
      <trkpt lat="43.83163" lon="5.45159">
        <ele>712</ele>
        <time>2016-04-16T17:04:06+02:00</time>
      </trkpt>
      <trkpt lat="43.8314" lon="5.45179">
        <ele>711</ele>
        <time>2016-04-16T17:04:11+02:00</time>
      </trkpt>
      <trkpt lat="43.83126" lon="5.45195">
        <ele>709</ele>
        <time>2016-04-16T17:04:16+02:00</time>
      </trkpt>
      <trkpt lat="43.83112" lon="5.45194">
        <ele>709</ele>
        <time>2016-04-16T17:04:21+02:00</time>
      </trkpt>
      <trkpt lat="43.83129" lon="5.45236">
        <ele>707</ele>
        <time>2016-04-16T17:04:26+02:00</time>
      </trkpt>
      <trkpt lat="43.83123" lon="5.45282">
        <ele>702</ele>
        <time>2016-04-16T17:04:31+02:00</time>
      </trkpt>
      <trkpt lat="43.83137" lon="5.45381">
        <ele>681</ele>
        <time>2016-04-16T17:04:36+02:00</time>
      </trkpt>
      <trkpt lat="43.83138" lon="5.45438">
        <ele>671</ele>
        <time>2016-04-16T17:04:41+02:00</time>
      </trkpt>
      <trkpt lat="43.83152" lon="5.45468">
        <ele>662</ele>
        <time>2016-04-16T17:04:46+02:00</time>
      </trkpt>
      <trkpt lat="43.83166" lon="5.45514">
        <ele>651</ele>
        <time>2016-04-16T17:04:51+02:00</time>
      </trkpt>
      <trkpt lat="43.83186" lon="5.45582">
        <ele>637</ele>
        <time>2016-04-16T17:04:56+02:00</time>
      </trkpt>
      <trkpt lat="43.83229" lon="5.45671">
        <ele>616</ele>
        <time>2016-04-16T17:05:01+02:00</time>
      </trkpt>
      <trkpt lat="43.83317" lon="5.4583">
        <ele>588</ele>
        <time>2016-04-16T17:05:06+02:00</time>
      </trkpt>
      <trkpt lat="43.83441" lon="5.4625">
        <ele>554</ele>
        <time>2016-04-16T17:05:11+02:00</time>
      </trkpt>
      <trkpt lat="43.83385" lon="5.46263">
        <ele>555</ele>
        <time>2016-04-16T17:05:16+02:00</time>
      </trkpt>
      <trkpt lat="43.83328" lon="5.46227">
        <ele>562</ele>
        <time>2016-04-16T17:05:21+02:00</time>
      </trkpt>
      <trkpt lat="43.83265" lon="5.4628">
        <ele>574</ele>
        <time>2016-04-16T17:05:26+02:00</time>
      </trkpt>
      <trkpt lat="43.83292" lon="5.46433">
        <ele>561</ele>
        <time>2016-04-16T17:05:31+02:00</time>
      </trkpt>
      <trkpt lat="43.83334" lon="5.46486">
        <ele>552</ele>
        <time>2016-04-16T17:05:36+02:00</time>
      </trkpt>
      <trkpt lat="43.83311" lon="5.46516">
        <ele>554</ele>
        <time>2016-04-16T17:05:41+02:00</time>
      </trkpt>
      <trkpt lat="43.83334" lon="5.46628">
        <ele>533</ele>
        <time>2016-04-16T17:05:46+02:00</time>
      </trkpt>
      <trkpt lat="43.8332" lon="5.4672">
        <ele>530</ele>
        <time>2016-04-16T17:05:51+02:00</time>
      </trkpt>
      <trkpt lat="43.8337" lon="5.46742">
        <ele>521</ele>
        <time>2016-04-16T17:05:56+02:00</time>
      </trkpt>
      <trkpt lat="43.83495" lon="5.46737">
        <ele>508</ele>
        <time>2016-04-16T17:06:01+02:00</time>
      </trkpt>
      <trkpt lat="43.83521" lon="5.46778">
        <ele>506</ele>
        <time>2016-04-16T17:06:06+02:00</time>
      </trkpt>
      <trkpt lat="43.83528" lon="5.46963">
        <ele>494</ele>
        <time>2016-04-16T17:06:11+02:00</time>
      </trkpt>
      <trkpt lat="43.83548" lon="5.47042">
        <ele>490</ele>
        <time>2016-04-16T17:06:16+02:00</time>
      </trkpt>
      <trkpt lat="43.83537" lon="5.47083">
        <ele>491</ele>
        <time>2016-04-16T17:06:21+02:00</time>
      </trkpt>
      <trkpt lat="43.83562" lon="5.47184">
        <ele>483</ele>
        <time>2016-04-16T17:06:26+02:00</time>
      </trkpt>
      <trkpt lat="43.83591" lon="5.47205">
        <ele>477</ele>
        <time>2016-04-16T17:06:31+02:00</time>
      </trkpt>
      <trkpt lat="43.83602" lon="5.47372">
        <ele>469</ele>
        <time>2016-04-16T17:06:36+02:00</time>
      </trkpt>
      <trkpt lat="43.83658" lon="5.47531">
        <ele>448</ele>
        <time>2016-04-16T17:06:41+02:00</time>
      </trkpt>
      <trkpt lat="43.83701" lon="5.476">
        <ele>447</ele>
        <time>2016-04-16T17:06:46+02:00</time>
      </trkpt>
      <trkpt lat="43.83757" lon="5.47658">
        <ele>450</ele>
        <time>2016-04-16T17:06:51+02:00</time>
      </trkpt>
      <trkpt lat="43.83785" lon="5.47756">
        <ele>445</ele>
        <time>2016-04-16T17:06:56+02:00</time>
      </trkpt>
      <trkpt lat="43.83808" lon="5.47825">
        <ele>440</ele>
        <time>2016-04-16T17:07:01+02:00</time>
      </trkpt>
      <trkpt lat="43.8387" lon="5.4784">
        <ele>444</ele>
        <time>2016-04-16T17:07:06+02:00</time>
      </trkpt>
      <trkpt lat="43.83978" lon="5.477">
        <ele>457</ele>
        <time>2016-04-16T17:07:11+02:00</time>
      </trkpt>
      <trkpt lat="43.84163" lon="5.47434">
        <ele>467</ele>
        <time>2016-04-16T17:07:16+02:00</time>
      </trkpt>
      <trkpt lat="43.84112" lon="5.47409">
        <ele>472</ele>
        <time>2016-04-16T17:07:21+02:00</time>
      </trkpt>
      <trkpt lat="43.84108" lon="5.47145">
        <ele>486</ele>
        <time>2016-04-16T17:07:26+02:00</time>
      </trkpt>
      <trkpt lat="43.84062" lon="5.46979">
        <ele>501</ele>
        <time>2016-04-16T17:07:31+02:00</time>
      </trkpt>
      <trkpt lat="43.8406" lon="5.46803">
        <ele>518</ele>
        <time>2016-04-16T17:07:36+02:00</time>
      </trkpt>
      <trkpt lat="43.842" lon="5.46718">
        <ele>525</ele>
        <time>2016-04-16T17:07:41+02:00</time>
      </trkpt>
      <trkpt lat="43.84201" lon="5.46771">
        <ele>519</ele>
        <time>2016-04-16T17:07:46+02:00</time>
      </trkpt>
      <trkpt lat="43.84361" lon="5.46623">
        <ele>497</ele>
        <time>2016-04-16T17:07:51+02:00</time>
      </trkpt>
      <trkpt lat="43.84395" lon="5.46647">
        <ele>488</ele>
        <time>2016-04-16T17:07:56+02:00</time>
      </trkpt>
      <trkpt lat="43.84403" lon="5.46595">
        <ele>490</ele>
        <time>2016-04-16T17:08:01+02:00</time>
      </trkpt>
      <trkpt lat="43.84477" lon="5.46563">
        <ele>473</ele>
        <time>2016-04-16T17:08:06+02:00</time>
      </trkpt>
      <trkpt lat="43.84536" lon="5.46344">
        <ele>474</ele>
        <time>2016-04-16T17:08:11+02:00</time>
      </trkpt>
      <trkpt lat="43.84597" lon="5.46374">
        <ele>460</ele>
        <time>2016-04-16T17:08:16+02:00</time>
      </trkpt>
      <trkpt lat="43.84621" lon="5.46464">
        <ele>452</ele>
        <time>2016-04-16T17:08:21+02:00</time>
      </trkpt>
      <trkpt lat="43.84649" lon="5.46475">
        <ele>450</ele>
        <time>2016-04-16T17:08:26+02:00</time>
      </trkpt>
      <trkpt lat="43.84658" lon="5.46531">
        <ele>445</ele>
        <time>2016-04-16T17:08:31+02:00</time>
      </trkpt>
      <trkpt lat="43.84727" lon="5.46591">
        <ele>433</ele>
        <time>2016-04-16T17:08:36+02:00</time>
      </trkpt>
      <trkpt lat="43.84715" lon="5.46619">
        <ele>430</ele>
        <time>2016-04-16T17:08:41+02:00</time>
      </trkpt>
      <trkpt lat="43.84723" lon="5.46655">
        <ele>425</ele>
        <time>2016-04-16T17:08:46+02:00</time>
      </trkpt>
      <trkpt lat="43.84755" lon="5.46675">
        <ele>420</ele>
        <time>2016-04-16T17:08:51+02:00</time>
      </trkpt>
      <trkpt lat="43.84792" lon="5.46645">
        <ele>414</ele>
        <time>2016-04-16T17:08:56+02:00</time>
      </trkpt>
      <trkpt lat="43.84814" lon="5.46535">
        <ele>418</ele>
        <time>2016-04-16T17:09:01+02:00</time>
      </trkpt>
      <trkpt lat="43.84797" lon="5.46447">
        <ele>425</ele>
        <time>2016-04-16T17:09:06+02:00</time>
      </trkpt>
      <trkpt lat="43.84871" lon="5.46488">
        <ele>425</ele>
        <time>2016-04-16T17:09:11+02:00</time>
      </trkpt>
      <trkpt lat="43.84949" lon="5.4663">
        <ele>424</ele>
        <time>2016-04-16T17:09:16+02:00</time>
      </trkpt>
      <trkpt lat="43.84941" lon="5.46761">
        <ele>416</ele>
        <time>2016-04-16T17:09:21+02:00</time>
      </trkpt>
      <trkpt lat="43.8502" lon="5.46964">
        <ele>402</ele>
        <time>2016-04-16T17:09:26+02:00</time>
      </trkpt>
      <trkpt lat="43.85001" lon="5.47031">
        <ele>393</ele>
        <time>2016-04-16T17:09:31+02:00</time>
      </trkpt>
      <trkpt lat="43.85065" lon="5.47127">
        <ele>380</ele>
        <time>2016-04-16T17:09:36+02:00</time>
      </trkpt>
      <trkpt lat="43.85147" lon="5.47112">
        <ele>378</ele>
        <time>2016-04-16T17:09:41+02:00</time>
      </trkpt>
      <trkpt lat="43.85155" lon="5.47164">
        <ele>370</ele>
        <time>2016-04-16T17:09:46+02:00</time>
      </trkpt>
      <trkpt lat="43.85272" lon="5.4722">
        <ele>359</ele>
        <time>2016-04-16T17:09:51+02:00</time>
      </trkpt>
      <trkpt lat="43.85237" lon="5.47321">
        <ele>345</ele>
        <time>2016-04-16T17:09:56+02:00</time>
      </trkpt>
      <trkpt lat="43.85201" lon="5.47424">
        <ele>324</ele>
        <time>2016-04-16T17:10:01+02:00</time>
      </trkpt>
      <trkpt lat="43.85241" lon="5.47481">
        <ele>318</ele>
        <time>2016-04-16T17:10:06+02:00</time>
      </trkpt>
      <trkpt lat="43.85229" lon="5.47492">
        <ele>313</ele>
        <time>2016-04-16T17:10:11+02:00</time>
      </trkpt>
      <trkpt lat="43.85228" lon="5.4752">
        <ele>307</ele>
        <time>2016-04-16T17:10:16+02:00</time>
      </trkpt>
      <trkpt lat="43.85214" lon="5.47502">
        <ele>309</ele>
        <time>2016-04-16T17:10:21+02:00</time>
      </trkpt>
      <trkpt lat="43.85211" lon="5.47534">
        <ele>302</ele>
        <time>2016-04-16T17:10:26+02:00</time>
      </trkpt>
      <trkpt lat="43.85222" lon="5.47581">
        <ele>292</ele>
        <time>2016-04-16T17:10:31+02:00</time>
      </trkpt>
      <trkpt lat="43.85205" lon="5.47568">
        <ele>295</ele>
        <time>2016-04-16T17:10:36+02:00</time>
      </trkpt>
      <trkpt lat="43.8521" lon="5.47607">
        <ele>289</ele>
        <time>2016-04-16T17:10:41+02:00</time>
      </trkpt>
      <trkpt lat="43.85191" lon="5.47601">
        <ele>290</ele>
        <time>2016-04-16T17:10:46+02:00</time>
      </trkpt>
      <trkpt lat="43.85203" lon="5.47617">
        <ele>288</ele>
        <time>2016-04-16T17:10:51+02:00</time>
      </trkpt>
      <trkpt lat="43.85207" lon="5.47632">
        <ele>286</ele>
        <time>2016-04-16T17:10:56+02:00</time>
      </trkpt>
      <trkpt lat="43.85246" lon="5.47645">
        <ele>283</ele>
        <time>2016-04-16T17:11:01+02:00</time>
      </trkpt>
      <trkpt lat="43.85253" lon="5.47636">
        <ele>284</ele>
        <time>2016-04-16T17:11:06+02:00</time>
      </trkpt>
      <trkpt lat="43.85253" lon="5.47623">
        <ele>286</ele>
        <time>2016-04-16T17:11:11+02:00</time>
      </trkpt>
      <trkpt lat="43.85291" lon="5.47605">
        <ele>285</ele>
        <time>2016-04-16T17:11:16+02:00</time>
      </trkpt>
      <trkpt lat="43.85346" lon="5.47557">
        <ele>287</ele>
        <time>2016-04-16T17:11:21+02:00</time>
      </trkpt>
      <trkpt lat="43.85397" lon="5.47535">
        <ele>285</ele>
        <time>2016-04-16T17:11:26+02:00</time>
      </trkpt>
      <trkpt lat="43.85434" lon="5.47503">
        <ele>283</ele>
        <time>2016-04-16T17:11:31+02:00</time>
      </trkpt>
      <trkpt lat="43.8551" lon="5.47381">
        <ele>284</ele>
        <time>2016-04-16T17:11:36+02:00</time>
      </trkpt>
      <trkpt lat="43.85535" lon="5.47357">
        <ele>287</ele>
        <time>2016-04-16T17:11:41+02:00</time>
      </trkpt>
      <trkpt lat="43.85585" lon="5.47365">
        <ele>280</ele>
        <time>2016-04-16T17:11:46+02:00</time>
      </trkpt>
      <trkpt lat="43.856" lon="5.47359">
        <ele>280</ele>
        <time>2016-04-16T17:11:51+02:00</time>
      </trkpt>
      <trkpt lat="43.85627" lon="5.47294">
        <ele>286</ele>
        <time>2016-04-16T17:11:56+02:00</time>
      </trkpt>
      <trkpt lat="43.8565" lon="5.47222">
        <ele>289</ele>
        <time>2016-04-16T17:12:01+02:00</time>
      </trkpt>
      <trkpt lat="43.8565" lon="5.47203">
        <ele>291</ele>
        <time>2016-04-16T17:12:06+02:00</time>
      </trkpt>
      <trkpt lat="43.85672" lon="5.47121">
        <ele>291</ele>
        <time>2016-04-16T17:12:11+02:00</time>
      </trkpt>
      <trkpt lat="43.85675" lon="5.47081">
        <ele>294</ele>
        <time>2016-04-16T17:12:16+02:00</time>
      </trkpt>
      <trkpt lat="43.85692" lon="5.47063">
        <ele>293</ele>
        <time>2016-04-16T17:12:21+02:00</time>
      </trkpt>
      <trkpt lat="43.85708" lon="5.4702">
        <ele>297</ele>
        <time>2016-04-16T17:12:26+02:00</time>
      </trkpt>
      <trkpt lat="43.85737" lon="5.46981">
        <ele>298</ele>
        <time>2016-04-16T17:12:31+02:00</time>
      </trkpt>
      <trkpt lat="43.85768" lon="5.46951">
        <ele>297</ele>
        <time>2016-04-16T17:12:36+02:00</time>
      </trkpt>
      <trkpt lat="43.85799" lon="5.46926">
        <ele>293</ele>
        <time>2016-04-16T17:12:41+02:00</time>
      </trkpt>
      <trkpt lat="43.8584" lon="5.46822">
        <ele>301</ele>
        <time>2016-04-16T17:12:46+02:00</time>
      </trkpt>
      <trkpt lat="43.86039" lon="5.46445">
        <ele>302</ele>
        <time>2016-04-16T17:12:51+02:00</time>
      </trkpt>
      <trkpt lat="43.8636" lon="5.46024">
        <ele>290</ele>
        <time>2016-04-16T17:12:56+02:00</time>
      </trkpt>
      <trkpt lat="43.8647" lon="5.46009">
        <ele>271</ele>
        <time>2016-04-16T17:13:01+02:00</time>
      </trkpt>
      <trkpt lat="43.86567" lon="5.4584">
        <ele>271</ele>
        <time>2016-04-16T17:13:06+02:00</time>
      </trkpt>
      <trkpt lat="43.8659" lon="5.45758">
        <ele>271</ele>
        <time>2016-04-16T17:13:11+02:00</time>
      </trkpt>
      <trkpt lat="43.86606" lon="5.4567">
        <ele>281</ele>
        <time>2016-04-16T17:13:16+02:00</time>
      </trkpt>
      <trkpt lat="43.86677" lon="5.45471">
        <ele>302</ele>
        <time>2016-04-16T17:13:21+02:00</time>
      </trkpt>
      <trkpt lat="43.86683" lon="5.45256">
        <ele>328</ele>
        <time>2016-04-16T17:13:26+02:00</time>
      </trkpt>
      <trkpt lat="43.86675" lon="5.45134">
        <ele>339</ele>
        <time>2016-04-16T17:13:31+02:00</time>
      </trkpt>
      <trkpt lat="43.86514" lon="5.44945">
        <ele>363</ele>
        <time>2016-04-16T17:13:36+02:00</time>
      </trkpt>
      <trkpt lat="43.86425" lon="5.44893">
        <ele>375</ele>
        <time>2016-04-16T17:13:41+02:00</time>
      </trkpt>
      <trkpt lat="43.86377" lon="5.44739">
        <ele>388</ele>
        <time>2016-04-16T17:13:46+02:00</time>
      </trkpt>
      <trkpt lat="43.86307" lon="5.44649">
        <ele>397</ele>
        <time>2016-04-16T17:13:51+02:00</time>
      </trkpt>
      <trkpt lat="43.86245" lon="5.44413">
        <ele>401</ele>
        <time>2016-04-16T17:13:56+02:00</time>
      </trkpt>
      <trkpt lat="43.86264" lon="5.44247">
        <ele>397</ele>
        <time>2016-04-16T17:14:01+02:00</time>
      </trkpt>
      <trkpt lat="43.86304" lon="5.44127">
        <ele>395</ele>
        <time>2016-04-16T17:14:06+02:00</time>
      </trkpt>
      <trkpt lat="43.86326" lon="5.43971">
        <ele>399</ele>
        <time>2016-04-16T17:14:11+02:00</time>
      </trkpt>
      <trkpt lat="43.86323" lon="5.43889">
        <ele>403</ele>
        <time>2016-04-16T17:14:16+02:00</time>
      </trkpt>
      <trkpt lat="43.86276" lon="5.43861">
        <ele>409</ele>
        <time>2016-04-16T17:14:21+02:00</time>
      </trkpt>
      <trkpt lat="43.86251" lon="5.43893">
        <ele>411</ele>
        <time>2016-04-16T17:14:26+02:00</time>
      </trkpt>
      <trkpt lat="43.86224" lon="5.43808">
        <ele>419</ele>
        <time>2016-04-16T17:14:31+02:00</time>
      </trkpt>
      <trkpt lat="43.86275" lon="5.43619">
        <ele>424</ele>
        <time>2016-04-16T17:14:36+02:00</time>
      </trkpt>
      <trkpt lat="43.86292" lon="5.4343">
        <ele>439</ele>
        <time>2016-04-16T17:14:41+02:00</time>
      </trkpt>
      <trkpt lat="43.86315" lon="5.43387">
        <ele>438</ele>
        <time>2016-04-16T17:14:46+02:00</time>
      </trkpt>
      <trkpt lat="43.8633" lon="5.4326">
        <ele>448</ele>
        <time>2016-04-16T17:14:51+02:00</time>
      </trkpt>
      <trkpt lat="43.86355" lon="5.43065">
        <ele>462</ele>
        <time>2016-04-16T17:14:56+02:00</time>
      </trkpt>
      <trkpt lat="43.86355" lon="5.43001">
        <ele>471</ele>
        <time>2016-04-16T17:15:01+02:00</time>
      </trkpt>
      <trkpt lat="43.86275" lon="5.42928">
        <ele>485</ele>
        <time>2016-04-16T17:15:06+02:00</time>
      </trkpt>
      <trkpt lat="43.86179" lon="5.42999">
        <ele>490</ele>
        <time>2016-04-16T17:15:11+02:00</time>
      </trkpt>
    </trkseg>
  </trk>
</gpx>